sensor_id;sensor_type;location;lat;lon;timestamp;pressure;altitude;pressure_sealevel;temperature;humidity
43488;BME280;29078;41.932;25.554;2023-07-22T00:02:00;99356.28;;;29.36;43.29
43488;BME280;29078;41.932;25.554;2023-07-22T00:04:26;99357.69;;;29.33;43.34
43488;BME280;29078;41.932;25.554;2023-07-22T00:06:52;99357.19;;;29.31;42.90
43488;BME280;29078;41.932;25.554;2023-07-22T00:09:17;99353.38;;;29.32;42.93
43488;BME280;29078;41.932;25.554;2023-07-22T00:11:42;99362.34;;;29.33;42.81
43488;BME280;29078;41.932;25.554;2023-07-22T00:14:08;99357.81;;;29.28;43.10
43488;BME280;29078;41.932;25.554;2023-07-22T00:16:34;99349.66;;;29.28;43.06
43488;BME280;29078;41.932;25.554;2023-07-22T00:18:59;99349.66;;;29.28;43.37
43488;BME280;29078;41.932;25.554;2023-07-22T00:21:25;99342.91;;;29.26;43.04
43488;BME280;29078;41.932;25.554;2023-07-22T00:23:50;99335.06;;;29.24;43.20
43488;BME280;29078;41.932;25.554;2023-07-22T00:26:15;99341.91;;;29.22;43.23
43488;BME280;29078;41.932;25.554;2023-07-22T00:28:40;99341.13;;;29.21;43.25
43488;BME280;29078;41.932;25.554;2023-07-22T00:31:07;99342.72;;;29.22;43.29
43488;BME280;29078;41.932;25.554;2023-07-22T00:33:33;99342.22;;;29.20;43.12
43488;BME280;29078;41.932;25.554;2023-07-22T00:35:58;99339.81;;;29.19;43.50
43488;BME280;29078;41.932;25.554;2023-07-22T00:38:24;99328.44;;;29.17;43.33
43488;BME280;29078;41.932;25.554;2023-07-22T00:40:49;99323.00;;;29.17;43.68
43488;BME280;29078;41.932;25.554;2023-07-22T00:43:14;99328.44;;;29.17;43.74
43488;BME280;29078;41.932;25.554;2023-07-22T00:45:40;99323.00;;;29.17;43.52
43488;BME280;29078;41.932;25.554;2023-07-22T00:48:05;99331.16;;;29.17;42.95
43488;BME280;29078;41.932;25.554;2023-07-22T00:50:31;99328.44;;;29.17;43.22
43488;BME280;29078;41.932;25.554;2023-07-22T00:52:56;99332.25;;;29.16;43.35
43488;BME280;29078;41.932;25.554;2023-07-22T00:55:22;99330.66;;;29.15;43.45
43488;BME280;29078;41.932;25.554;2023-07-22T00:57:47;99333.38;;;29.15;42.58
43488;BME280;29078;41.932;25.554;2023-07-22T01:00:13;99332.06;;;29.12;42.77
43488;BME280;29078;41.932;25.554;2023-07-22T01:02:40;99344.16;;;29.06;44.14
43488;BME280;29078;41.932;25.554;2023-07-22T01:05:06;99339.34;;;29.03;43.86
43488;BME280;29078;41.932;25.554;2023-07-22T01:07:31;99339.13;;;28.99;44.05
43488;BME280;29078;41.932;25.554;2023-07-22T01:09:57;99332.06;;;28.98;43.98
43488;BME280;29078;41.932;25.554;2023-07-22T01:12:23;99333.97;;;28.98;43.71
43488;BME280;29078;41.932;25.554;2023-07-22T01:14:48;99336.69;;;28.98;42.88
43488;BME280;29078;41.932;25.554;2023-07-22T01:17:14;99334.38;;;28.91;43.98
43488;BME280;29078;41.932;25.554;2023-07-22T01:19:39;99339.13;;;28.86;44.20
43488;BME280;29078;41.932;25.554;2023-07-22T01:22:05;99342.16;;;28.84;44.14
43488;BME280;29078;41.932;25.554;2023-07-22T01:24:33;99344.34;;;28.82;43.87
43488;BME280;29078;41.932;25.554;2023-07-22T01:26:58;99343.84;;;28.80;44.26
43488;BME280;29078;41.932;25.554;2023-07-22T01:29:24;99337.59;;;28.79;43.95
43488;BME280;29078;41.932;25.554;2023-07-22T01:31:50;99341.91;;;28.80;43.89
43488;BME280;29078;41.932;25.554;2023-07-22T01:34:15;99338.91;;;28.82;44.19
43488;BME280;29078;41.932;25.554;2023-07-22T01:36:42;99351.97;;;28.80;44.12
43488;BME280;29078;41.932;25.554;2023-07-22T01:39:08;99348.75;;;28.78;43.59
43488;BME280;29078;41.932;25.554;2023-07-22T01:41:33;99356.41;;;28.76;43.78
43488;BME280;29078;41.932;25.554;2023-07-22T01:43:58;99354.59;;;28.71;43.59
43488;BME280;29078;41.932;25.554;2023-07-22T01:46:24;99358.22;;;28.67;44.05
43488;BME280;29078;41.932;25.554;2023-07-22T01:48:50;99360.75;;;28.63;44.59
43488;BME280;29078;41.932;25.554;2023-07-22T01:51:15;99360.53;;;28.60;44.56
43488;BME280;29078;41.932;25.554;2023-07-22T01:53:41;99365.47;;;28.58;44.63
43488;BME280;29078;41.932;25.554;2023-07-22T01:56:06;99364.66;;;28.57;44.66
43488;BME280;29078;41.932;25.554;2023-07-22T01:58:32;99357.41;;;28.53;44.39
43488;BME280;29078;41.932;25.554;2023-07-22T02:00:57;99359.94;;;28.49;44.54
43488;BME280;29078;41.932;25.554;2023-07-22T02:03:22;99353.69;;;28.48;44.26
43488;BME280;29078;41.932;25.554;2023-07-22T02:05:47;99362.75;;;28.44;44.58
43488;BME280;29078;41.932;25.554;2023-07-22T02:08:13;99359.00;;;28.40;44.55
43488;BME280;29078;41.932;25.554;2023-07-22T02:10:38;99362.94;;;28.34;45.09
43488;BME280;29078;41.932;25.554;2023-07-22T02:13:03;99360.50;;;28.32;44.22
43488;BME280;29078;41.932;25.554;2023-07-22T02:15:29;99350.66;;;28.36;43.86
43488;BME280;29078;41.932;25.554;2023-07-22T02:17:55;99344.81;;;28.29;44.75
43488;BME280;29078;41.932;25.554;2023-07-22T02:20:20;99351.66;;;28.27;44.94
43488;BME280;29078;41.932;25.554;2023-07-22T02:22:45;99353.28;;;28.23;45.43
43488;BME280;29078;41.932;25.554;2023-07-22T02:25:11;99355.81;;;28.19;45.42
43488;BME280;29078;41.932;25.554;2023-07-22T02:27:36;99366.47;;;28.15;45.61
43488;BME280;29078;41.932;25.554;2023-07-22T02:30:02;99382.03;;;28.10;45.06
43488;BME280;29078;41.932;25.554;2023-07-22T02:32:29;99391.88;;;28.06;45.51
43488;BME280;29078;41.932;25.554;2023-07-22T02:34:54;99405.13;;;28.07;44.76
43488;BME280;29078;41.932;25.554;2023-07-22T02:37:19;99424.66;;;28.09;44.89
43488;BME280;29078;41.932;25.554;2023-07-22T02:39:45;99415.69;;;28.09;46.34
43488;BME280;29078;41.932;25.554;2023-07-22T02:42:10;99423.50;;;27.97;46.49
43488;BME280;29078;41.932;25.554;2023-07-22T02:44:35;99428.56;;;27.84;47.36
43488;BME280;29078;41.932;25.554;2023-07-22T02:47:00;99422.41;;;27.79;45.74
43488;BME280;29078;41.932;25.554;2023-07-22T02:49:26;99407.22;;;27.78;46.04
43488;BME280;29078;41.932;25.554;2023-07-22T02:51:51;99405.41;;;27.73;46.53
43488;BME280;29078;41.932;25.554;2023-07-22T02:54:16;99396.84;;;27.66;47.73
43488;BME280;29078;41.932;25.554;2023-07-22T02:56:42;99387.19;;;27.55;47.77
43488;BME280;29078;41.932;25.554;2023-07-22T02:59:07;99397.56;;;27.48;47.23
43488;BME280;29078;41.932;25.554;2023-07-22T03:01:34;99389.44;;;27.48;46.73
43488;BME280;29078;41.932;25.554;2023-07-22T03:03:59;99402.56;;;27.41;48.21
43488;BME280;29078;41.932;25.554;2023-07-22T03:06:24;99399.25;;;27.44;46.21
43488;BME280;29078;41.932;25.554;2023-07-22T03:08:51;99405.19;;;27.46;46.12
43488;BME280;29078;41.932;25.554;2023-07-22T03:11:16;99411.28;;;27.38;47.30
43488;BME280;29078;41.932;25.554;2023-07-22T03:13:42;99432.53;;;27.31;47.53
43488;BME280;29078;41.932;25.554;2023-07-22T03:16:07;99426.94;;;27.22;48.26
43488;BME280;29078;41.932;25.554;2023-07-22T03:18:33;99427.28;;;27.15;48.74
43488;BME280;29078;41.932;25.554;2023-07-22T03:20:58;99422.91;;;27.19;48.46
43488;BME280;29078;41.932;25.554;2023-07-22T03:23:23;99429.34;;;27.23;47.57
43488;BME280;29078;41.932;25.554;2023-07-22T03:25:49;99426.94;;;27.22;48.49
43488;BME280;29078;41.932;25.554;2023-07-22T03:28:14;99424.06;;;27.13;49.60
43488;BME280;29078;41.932;25.554;2023-07-22T03:30:39;99424.56;;;27.15;48.61
43488;BME280;29078;41.932;25.554;2023-07-22T03:33:05;99419.22;;;27.10;49.60
43488;BME280;29078;41.932;25.554;2023-07-22T03:35:30;99424.41;;;27.07;48.67
43488;BME280;29078;41.932;25.554;2023-07-22T03:37:56;99422.00;;;27.05;49.37
43488;BME280;29078;41.932;25.554;2023-07-22T03:40:21;99418.53;;;27.00;49.31
43488;BME280;29078;41.932;25.554;2023-07-22T03:42:52;99423.97;;;27.00;49.59
43488;BME280;29078;41.932;25.554;2023-07-22T03:45:18;99414.22;;;26.99;51.82
43488;BME280;29078;41.932;25.554;2023-07-22T03:47:44;99407.44;;;26.96;50.47
43488;BME280;29078;41.932;25.554;2023-07-22T03:50:10;99397.41;;;26.97;50.26
43488;BME280;29078;41.932;25.554;2023-07-22T03:52:35;99403.59;;;27.02;50.95
43488;BME280;29078;41.932;25.554;2023-07-22T03:55:01;99399.00;;;27.03;51.05
43488;BME280;29078;41.932;25.554;2023-07-22T03:57:26;99403.31;;;27.04;49.80
43488;BME280;29078;41.932;25.554;2023-07-22T03:59:53;99419.22;;;27.10;50.10
43488;BME280;29078;41.932;25.554;2023-07-22T04:02:18;99415.19;;;27.08;48.17
43488;BME280;29078;41.932;25.554;2023-07-22T04:04:44;99420.38;;;27.04;49.91
43488;BME280;29078;41.932;25.554;2023-07-22T04:07:09;99418.19;;;27.06;48.55
43488;BME280;29078;41.932;25.554;2023-07-22T04:09:35;99423.09;;;27.04;49.64
43488;BME280;29078;41.932;25.554;2023-07-22T04:12:00;99423.31;;;27.08;50.46
43488;BME280;29078;41.932;25.554;2023-07-22T04:14:25;99434.16;;;27.08;51.10
43488;BME280;29078;41.932;25.554;2023-07-22T04:16:50;99422.00;;;27.05;51.22
43488;BME280;29078;41.932;25.554;2023-07-22T04:19:16;99423.66;;;27.01;50.51
43488;BME280;29078;41.932;25.554;2023-07-22T04:21:42;99434.44;;;27.06;48.89
43488;BME280;29078;41.932;25.554;2023-07-22T04:24:07;99432.03;;;27.05;50.22
43488;BME280;29078;41.932;25.554;2023-07-22T04:26:32;99436.94;;;27.03;51.80
43488;BME280;29078;41.932;25.554;2023-07-22T04:28:57;99428.81;;;27.03;50.53
43488;BME280;29078;41.932;25.554;2023-07-22T04:31:22;99432.47;;;27.12;49.81
43488;BME280;29078;41.932;25.554;2023-07-22T04:33:48;99437.09;;;27.11;49.61
43488;BME280;29078;41.932;25.554;2023-07-22T04:36:13;99434.75;;;27.05;51.38
43488;BME280;29078;41.932;25.554;2023-07-22T04:38:38;99430.13;;;27.05;51.00
43488;BME280;29078;41.932;25.554;2023-07-22T04:41:03;99427.34;;;27.10;50.69
43488;BME280;29078;41.932;25.554;2023-07-22T04:43:30;99435.72;;;27.14;49.96
43488;BME280;29078;41.932;25.554;2023-07-22T04:45:55;99439.47;;;27.18;50.95
43488;BME280;29078;41.932;25.554;2023-07-22T04:48:21;99433.97;;;27.23;50.29
43488;BME280;29078;41.932;25.554;2023-07-22T04:50:48;99438.88;;;27.21;51.85
43488;BME280;29078;41.932;25.554;2023-07-22T04:53:13;99437.56;;;27.18;51.97
43488;BME280;29078;41.932;25.554;2023-07-22T04:55:39;99440.25;;;27.18;51.26
43488;BME280;29078;41.932;25.554;2023-07-22T04:58:04;99444.53;;;27.25;50.58
43488;BME280;29078;41.932;25.554;2023-07-22T05:00:30;99444.75;;;27.28;52.27
43488;BME280;29078;41.932;25.554;2023-07-22T05:02:55;99451.28;;;27.27;51.91
43488;BME280;29078;41.932;25.554;2023-07-22T05:05:21;99451.50;;;27.31;52.00
43488;BME280;29078;41.932;25.554;2023-07-22T05:07:47;99448.72;;;27.36;51.47
43488;BME280;29078;41.932;25.554;2023-07-22T05:10:14;99446.31;;;27.34;51.88
43488;BME280;29078;41.932;25.554;2023-07-22T05:12:39;99432.22;;;27.32;52.69
43488;BME280;29078;41.932;25.554;2023-07-22T05:15:05;99433.91;;;27.28;51.45
43488;BME280;29078;41.932;25.554;2023-07-22T05:17:30;99434.72;;;27.29;51.91
43488;BME280;29078;41.932;25.554;2023-07-22T05:19:56;99443.88;;;27.33;51.46
43488;BME280;29078;41.932;25.554;2023-07-22T05:22:22;99448.13;;;27.39;52.33
43488;BME280;29078;41.932;25.554;2023-07-22T05:24:47;99449.75;;;27.40;51.97
43488;BME280;29078;41.932;25.554;2023-07-22T05:27:12;99451.81;;;27.48;51.84
43488;BME280;29078;41.932;25.554;2023-07-22T05:29:37;99451.59;;;27.44;52.34
43488;BME280;29078;41.932;25.554;2023-07-22T05:32:03;99451.88;;;27.43;52.55
43488;BME280;29078;41.932;25.554;2023-07-22T05:34:28;99452.09;;;27.46;51.92
43488;BME280;29078;41.932;25.554;2023-07-22T05:36:53;99447.25;;;27.43;52.35
43488;BME280;29078;41.932;25.554;2023-07-22T05:39:18;99444.78;;;27.47;52.18
43488;BME280;29078;41.932;25.554;2023-07-22T05:41:44;99451.25;;;27.51;51.76
43488;BME280;29078;41.932;25.554;2023-07-22T05:44:09;99449.06;;;27.53;52.41
43488;BME280;29078;41.932;25.554;2023-07-22T05:46:34;99455.22;;;27.59;51.93
43488;BME280;29078;41.932;25.554;2023-07-22T05:49:00;99447.09;;;27.59;52.69
43488;BME280;29078;41.932;25.554;2023-07-22T05:51:25;99447.84;;;27.64;52.69
43488;BME280;29078;41.932;25.554;2023-07-22T05:53:51;99441.34;;;27.65;51.32
43488;BME280;29078;41.932;25.554;2023-07-22T05:56:16;99427.69;;;27.70;52.72
43488;BME280;29078;41.932;25.554;2023-07-22T05:58:41;99437.38;;;27.76;51.44
43488;BME280;29078;41.932;25.554;2023-07-22T06:01:06;99436.78;;;27.79;51.48
43488;BME280;29078;41.932;25.554;2023-07-22T06:03:32;99440.53;;;27.83;50.72
43488;BME280;29078;41.932;25.554;2023-07-22T06:05:58;99440.22;;;27.85;50.33
43488;BME280;29078;41.932;25.554;2023-07-22T06:08:23;99445.88;;;27.89;49.97
43488;BME280;29078;41.932;25.554;2023-07-22T06:10:48;99435.03;;;27.89;51.88
43488;BME280;29078;41.932;25.554;2023-07-22T06:13:13;99435.75;;;27.94;52.23
43488;BME280;29078;41.932;25.554;2023-07-22T06:15:39;99434.56;;;28.00;51.11
43488;BME280;29078;41.932;25.554;2023-07-22T06:18:04;99430.47;;;28.03;51.50
43488;BME280;29078;41.932;25.554;2023-07-22T06:20:33;99434.09;;;28.12;50.17
43488;BME280;29078;41.932;25.554;2023-07-22T06:22:59;99433.31;;;28.11;49.26
43488;BME280;29078;41.932;25.554;2023-07-22T06:25:24;99428.47;;;28.08;50.78
43488;BME280;29078;41.932;25.554;2023-07-22T06:27:49;99437.13;;;28.10;50.96
43488;BME280;29078;41.932;25.554;2023-07-22T06:30:14;99445.41;;;28.19;51.03
43488;BME280;29078;41.932;25.554;2023-07-22T06:32:40;99447.25;;;28.24;50.63
43488;BME280;29078;41.932;25.554;2023-07-22T06:35:05;99444.78;;;28.27;51.46
43488;BME280;29078;41.932;25.554;2023-07-22T06:37:30;99449.31;;;28.32;50.79
43488;BME280;29078;41.932;25.554;2023-07-22T06:39:56;99450.84;;;28.38;51.27
43488;BME280;29078;41.932;25.554;2023-07-22T06:42:21;99448.50;;;28.31;51.34
43488;BME280;29078;41.932;25.554;2023-07-22T06:44:46;99438.97;;;28.34;51.10
43488;BME280;29078;41.932;25.554;2023-07-22T06:47:12;99435.88;;;28.40;50.09
43488;BME280;29078;41.932;25.554;2023-07-22T06:49:37;99441.81;;;28.42;51.64
43488;BME280;29078;41.932;25.554;2023-07-22T06:52:02;99442.63;;;28.57;50.03
43488;BME280;29078;41.932;25.554;2023-07-22T06:54:28;99438.72;;;28.63;50.11
43488;BME280;29078;41.932;25.554;2023-07-22T06:56:53;99446.78;;;28.68;50.29
43488;BME280;29078;41.932;25.554;2023-07-22T06:59:18;99447.69;;;28.77;49.44
43488;BME280;29078;41.932;25.554;2023-07-22T07:01:44;99444.88;;;28.82;50.30
43488;BME280;29078;41.932;25.554;2023-07-22T07:04:09;99438.34;;;28.83;50.42
43488;BME280;29078;41.932;25.554;2023-07-22T07:06:34;99439.09;;;28.89;49.58
43488;BME280;29078;41.932;25.554;2023-07-22T07:08:59;99442.72;;;28.98;49.25
43488;BME280;29078;41.932;25.554;2023-07-22T07:11:28;99440.78;;;28.98;50.00
43488;BME280;29078;41.932;25.554;2023-07-22T07:13:54;99449.88;;;29.07;49.53
43488;BME280;29078;41.932;25.554;2023-07-22T07:16:20;99437.91;;;29.22;48.80
43488;BME280;29078;41.932;25.554;2023-07-22T07:18:45;99449.66;;;29.31;49.47
43488;BME280;29078;41.932;25.554;2023-07-22T07:21:11;99453.19;;;29.32;48.21
43488;BME280;29078;41.932;25.554;2023-07-22T07:23:36;99444.94;;;29.37;48.55
43488;BME280;29078;41.932;25.554;2023-07-22T07:26:01;99449.75;;;29.40;48.60
43488;BME280;29078;41.932;25.554;2023-07-22T07:28:27;99455.13;;;29.45;48.54
43488;BME280;29078;41.932;25.554;2023-07-22T07:30:52;99455.50;;;29.52;48.17
43488;BME280;29078;41.932;25.554;2023-07-22T07:33:17;99450.47;;;29.59;47.45
43488;BME280;29078;41.932;25.554;2023-07-22T07:35:45;99447.50;;;29.69;46.83
43488;BME280;29078;41.932;25.554;2023-07-22T07:38:10;99453.75;;;29.70;47.91
43488;BME280;29078;41.932;25.554;2023-07-22T07:40:36;99456.47;;;29.84;46.71
43488;BME280;29078;41.932;25.554;2023-07-22T07:43:01;99453.00;;;29.92;46.75
43488;BME280;29078;41.932;25.554;2023-07-22T07:45:26;99458.84;;;29.99;46.52
43488;BME280;29078;41.932;25.554;2023-07-22T07:47:51;99458.44;;;30.06;46.75
43488;BME280;29078;41.932;25.554;2023-07-22T07:50:17;99466.53;;;30.19;46.72
43488;BME280;29078;41.932;25.554;2023-07-22T07:52:42;99458.94;;;30.30;46.74
43488;BME280;29078;41.932;25.554;2023-07-22T07:55:07;99460.41;;;30.36;46.41
43488;BME280;29078;41.932;25.554;2023-07-22T07:57:32;99461.34;;;30.31;45.92
43488;BME280;29078;41.932;25.554;2023-07-22T07:59:58;99468.44;;;30.41;45.69
43488;BME280;29078;41.932;25.554;2023-07-22T08:02:23;99463.69;;;30.47;45.75
43488;BME280;29078;41.932;25.554;2023-07-22T08:04:48;99453.50;;;30.52;45.75
43488;BME280;29078;41.932;25.554;2023-07-22T08:07:15;99460.94;;;30.60;45.70
43488;BME280;29078;41.932;25.554;2023-07-22T08:09:40;99461.28;;;30.67;45.60
43488;BME280;29078;41.932;25.554;2023-07-22T08:12:06;99456.78;;;30.63;45.11
43488;BME280;29078;41.932;25.554;2023-07-22T08:14:33;99447.41;;;30.78;45.13
43488;BME280;29078;41.932;25.554;2023-07-22T08:16:58;99441.53;;;30.93;44.71
43488;BME280;29078;41.932;25.554;2023-07-22T08:19:23;99435.31;;;31.10;44.55
43488;BME280;29078;41.932;25.554;2023-07-22T08:21:49;99439.91;;;31.23;44.49
43488;BME280;29078;41.932;25.554;2023-07-22T08:24:14;99444.25;;;31.33;44.19
43488;BME280;29078;41.932;25.554;2023-07-22T08:26:39;99447.00;;;31.41;43.97
43488;BME280;29078;41.932;25.554;2023-07-22T08:29:04;99436.91;;;31.42;43.81
43488;BME280;29078;41.932;25.554;2023-07-22T08:31:30;99433.53;;;31.53;43.40
43488;BME280;29078;41.932;25.554;2023-07-22T08:33:55;99434.19;;;31.59;43.01
43488;BME280;29078;41.932;25.554;2023-07-22T08:36:20;99439.03;;;31.71;42.65
43488;BME280;29078;41.932;25.554;2023-07-22T08:38:45;99439.84;;;31.80;42.37
43488;BME280;29078;41.932;25.554;2023-07-22T08:41:14;99443.69;;;31.87;42.09
43488;BME280;29078;41.932;25.554;2023-07-22T08:43:40;99446.28;;;31.84;42.20
43488;BME280;29078;41.932;25.554;2023-07-22T08:46:05;99442.09;;;31.86;42.27
43488;BME280;29078;41.932;25.554;2023-07-22T08:48:31;99436.19;;;32.02;42.54
43488;BME280;29078;41.932;25.554;2023-07-22T08:51:03;99429.56;;;32.20;42.27
43488;BME280;29078;41.932;25.554;2023-07-22T08:53:29;99433.25;;;32.33;42.12
43488;BME280;29078;41.932;25.554;2023-07-22T08:55:55;99426.47;;;32.47;41.82
43488;BME280;29078;41.932;25.554;2023-07-22T08:58:20;99423.53;;;32.61;41.93
43488;BME280;29078;41.932;25.554;2023-07-22T09:00:47;99418.06;;;32.78;41.19
43488;BME280;29078;41.932;25.554;2023-07-22T09:03:13;99408.84;;;32.92;41.57
43488;BME280;29078;41.932;25.554;2023-07-22T09:05:38;99406.66;;;33.06;40.57
43488;BME280;29078;41.932;25.554;2023-07-22T09:08:05;99406.09;;;33.21;40.54
43488;BME280;29078;41.932;25.554;2023-07-22T09:10:31;99398.69;;;33.22;39.41
43488;BME280;29078;41.932;25.554;2023-07-22T09:12:57;99398.16;;;33.28;39.97
43488;BME280;29078;41.932;25.554;2023-07-22T09:15:23;99405.53;;;33.36;39.83
43488;BME280;29078;41.932;25.554;2023-07-22T09:17:49;99406.44;;;33.49;39.80
43488;BME280;29078;41.932;25.554;2023-07-22T09:20:14;99405.38;;;33.62;39.69
43488;BME280;29078;41.932;25.554;2023-07-22T09:22:47;99404.41;;;33.79;38.91
43488;BME280;29078;41.932;25.554;2023-07-22T09:25:17;99404.16;;;33.93;39.01
43488;BME280;29078;41.932;25.554;2023-07-22T09:27:43;99405.03;;;34.18;38.61
43488;BME280;29078;41.932;25.554;2023-07-22T09:32:56;99396.28;;;34.57;37.28
43488;BME280;29078;41.932;25.554;2023-07-22T09:35:22;99399.72;;;34.66;37.65
43488;BME280;29078;41.932;25.554;2023-07-22T09:37:48;99386.25;;;34.86;37.59
43488;BME280;29078;41.932;25.554;2023-07-22T09:42:38;99392.78;;;35.18;36.99
43488;BME280;29078;41.932;25.554;2023-07-22T09:45:04;99394.16;;;35.36;36.71
43488;BME280;29078;41.932;25.554;2023-07-22T09:47:30;99393.06;;;35.53;36.12
43488;BME280;29078;41.932;25.554;2023-07-22T09:50:04;99387.88;;;35.63;35.99
43488;BME280;29078;41.932;25.554;2023-07-22T09:52:29;99386.72;;;35.77;35.61
43488;BME280;29078;41.932;25.554;2023-07-22T09:54:55;99381.16;;;36.01;35.27
43488;BME280;29078;41.932;25.554;2023-07-22T09:57:21;99374.63;;;36.21;34.89
43488;BME280;29078;41.932;25.554;2023-07-22T09:59:47;99373.72;;;36.45;35.26
43488;BME280;29078;41.932;25.554;2023-07-22T10:02:14;99370.34;;;36.68;34.67
43488;BME280;29078;41.932;25.554;2023-07-22T10:04:41;99369.63;;;36.86;34.87
43488;BME280;29078;41.932;25.554;2023-07-22T10:07:07;99362.13;;;37.03;35.53
43488;BME280;29078;41.932;25.554;2023-07-22T10:09:32;99360.78;;;37.12;33.85
43488;BME280;29078;41.932;25.554;2023-07-22T10:11:59;99358.03;;;37.12;34.16
43488;BME280;29078;41.932;25.554;2023-07-22T10:14:24;99354.41;;;37.24;33.51
43488;BME280;29078;41.932;25.554;2023-07-22T10:16:50;99344.94;;;37.41;33.10
43488;BME280;29078;41.932;25.554;2023-07-22T10:19:17;99340.88;;;37.54;33.35
43488;BME280;29078;41.932;25.554;2023-07-22T10:21:42;99343.22;;;37.71;32.61
43488;BME280;29078;41.932;25.554;2023-07-22T10:24:08;99334.94;;;37.91;32.21
43488;BME280;29078;41.932;25.554;2023-07-22T10:26:34;99327.00;;;38.08;31.87
43488;BME280;29078;41.932;25.554;2023-07-22T10:28:59;99327.31;;;38.26;32.48
43488;BME280;29078;41.932;25.554;2023-07-22T10:31:29;99318.38;;;38.33;31.62
43488;BME280;29078;41.932;25.554;2023-07-22T10:33:54;99322.84;;;38.41;31.76
43488;BME280;29078;41.932;25.554;2023-07-22T10:36:21;99311.19;;;38.51;31.14
43488;BME280;29078;41.932;25.554;2023-07-22T10:38:54;99309.31;;;38.59;30.97
43488;BME280;29078;41.932;25.554;2023-07-22T10:41:20;99318.41;;;38.59;31.70
43488;BME280;29078;41.932;25.554;2023-07-22T10:43:56;99310.34;;;38.70;31.86
43488;BME280;29078;41.932;25.554;2023-07-22T10:49:01;99313.72;;;39.13;31.24
43488;BME280;29078;41.932;25.554;2023-07-22T10:51:35;99301.97;;;39.19;31.58
43488;BME280;29078;41.932;25.554;2023-07-22T10:54:00;99302.09;;;39.30;28.97
43488;BME280;29078;41.932;25.554;2023-07-22T10:56:26;99296.63;;;39.33;31.25
43488;BME280;29078;41.932;25.554;2023-07-22T11:06:31;99284.63;;;39.89;29.74
43488;BME280;29078;41.932;25.554;2023-07-22T11:08:56;99272.16;;;40.02;28.17
43488;BME280;29078;41.932;25.554;2023-07-22T11:11:34;99274.19;;;40.09;29.11
43488;BME280;29078;41.932;25.554;2023-07-22T11:14:18;99284.03;;;40.07;28.67
43488;BME280;29078;41.932;25.554;2023-07-22T11:16:46;99281.69;;;40.09;29.35
43488;BME280;29078;41.932;25.554;2023-07-22T11:19:15;99273.91;;;40.21;27.60
43488;BME280;29078;41.932;25.554;2023-07-22T11:21:41;99273.22;;;40.35;28.54
43488;BME280;29078;41.932;25.554;2023-07-22T11:24:06;99269.72;;;40.38;28.40
43488;BME280;29078;41.932;25.554;2023-07-22T11:26:32;99270.16;;;40.47;29.39
43488;BME280;29078;41.932;25.554;2023-07-22T11:28:58;99269.50;;;40.68;28.05
43488;BME280;29078;41.932;25.554;2023-07-22T11:31:34;99257.78;;;40.85;28.34
43488;BME280;29078;41.932;25.554;2023-07-22T11:34:01;99260.41;;;40.68;27.52
43488;BME280;29078;41.932;25.554;2023-07-22T11:36:27;99255.31;;;40.77;27.05
43488;BME280;29078;41.932;25.554;2023-07-22T11:38:52;99260.94;;;40.87;27.72
43488;BME280;29078;41.932;25.554;2023-07-22T11:41:17;99263.44;;;41.07;27.36
43488;BME280;29078;41.932;25.554;2023-07-22T11:43:43;99261.50;;;41.18;27.69
43488;BME280;29078;41.932;25.554;2023-07-22T11:46:08;99264.28;;;41.18;26.82
43488;BME280;29078;41.932;25.554;2023-07-22T11:48:33;99260.72;;;41.17;24.91
43488;BME280;29078;41.932;25.554;2023-07-22T11:50:59;99256.81;;;41.29;25.83
43488;BME280;29078;41.932;25.554;2023-07-22T11:53:28;99246.94;;;41.35;26.70
43488;BME280;29078;41.932;25.554;2023-07-22T11:55:56;99250.13;;;41.48;25.92
43488;BME280;29078;41.932;25.554;2023-07-22T11:58:27;99248.16;;;41.55;25.48
43488;BME280;29078;41.932;25.554;2023-07-22T12:01:11;99243.44;;;41.59;25.91
43488;BME280;29078;41.932;25.554;2023-07-22T12:03:36;99235.97;;;41.78;23.77
43488;BME280;29078;41.932;25.554;2023-07-22T12:06:02;99241.53;;;41.88;25.91
43488;BME280;29078;41.932;25.554;2023-07-22T12:08:28;99237.97;;;41.92;25.24
43488;BME280;29078;41.932;25.554;2023-07-22T12:10:59;99240.34;;;41.97;24.49
43488;BME280;29078;41.932;25.554;2023-07-22T12:13:24;99241.97;;;42.05;24.65
43488;BME280;29078;41.932;25.554;2023-07-22T12:16:02;99243.53;;;42.09;24.67
43488;BME280;29078;41.932;25.554;2023-07-22T12:18:28;99237.59;;;42.14;24.99
43488;BME280;29078;41.932;25.554;2023-07-22T12:20:53;99232.03;;;42.18;25.55
43488;BME280;29078;41.932;25.554;2023-07-22T12:23:18;99218.56;;;42.16;21.58
43488;BME280;29078;41.932;25.554;2023-07-22T12:25:44;99214.19;;;42.19;24.36
43488;BME280;29078;41.932;25.554;2023-07-22T12:28:09;99211.41;;;42.26;24.01
43488;BME280;29078;41.932;25.554;2023-07-22T12:30:36;99213.38;;;42.36;24.49
43488;BME280;29078;41.932;25.554;2023-07-22T12:33:01;99211.44;;;42.47;25.00
43488;BME280;29078;41.932;25.554;2023-07-22T12:35:27;99195.53;;;42.55;25.99
43488;BME280;29078;41.932;25.554;2023-07-22T12:37:52;99198.72;;;42.50;25.29
43488;BME280;29078;41.932;25.554;2023-07-22T12:40:17;99204.28;;;42.39;24.66
43488;BME280;29078;41.932;25.554;2023-07-22T12:42:42;99192.38;;;42.35;25.46
43488;BME280;29078;41.932;25.554;2023-07-22T12:45:08;99184.84;;;42.43;24.19
43488;BME280;29078;41.932;25.554;2023-07-22T12:47:33;99192.00;;;42.47;23.44
43488;BME280;29078;41.932;25.554;2023-07-22T12:49:58;99185.22;;;42.59;24.69
43488;BME280;29078;41.932;25.554;2023-07-22T12:52:24;99187.56;;;42.64;25.56
43488;BME280;29078;41.932;25.554;2023-07-22T12:54:49;99170.94;;;42.57;24.23
43488;BME280;29078;41.932;25.554;2023-07-22T12:57:14;99174.09;;;42.63;22.68
43488;BME280;29078;41.932;25.554;2023-07-22T12:59:39;99169.72;;;42.69;23.91